createdAt,value
2022-12-26T00:01:39.464Z,100256.22
2022-12-26T00:04:06.422Z,100256.22
2022-12-26T00:06:52.664Z,100247.34
2022-12-26T00:09:19.063Z,100256.16
2022-12-26T00:11:45.462Z,100257.78
2022-12-26T00:14:14.794Z,100252.78
2022-12-26T00:16:42.887Z,100251.59
2022-12-26T00:19:10.096Z,100251.88
2022-12-26T00:21:36.526Z,100249.09
2022-12-26T00:24:03.974Z,100255.63
2022-12-26T00:26:32.275Z,100256.56
2022-12-26T00:28:58.818Z,100253.53
2022-12-26T00:31:28.390Z,100257.94
2022-12-26T00:33:55.120Z,100259.50
2022-12-26T00:36:23.839Z,100249.38
2022-12-26T00:38:51.011Z,100259.31
2022-12-26T00:41:18.551Z,100246.69
2022-12-26T00:43:45.117Z,100254.31
2022-12-26T00:46:11.621Z,100260.31
2022-12-26T00:48:38.007Z,100257.72
2022-12-26T00:51:05.106Z,100260.63
2022-12-26T00:53:32.013Z,100259.41
2022-12-26T00:55:58.420Z,100252.56
2022-12-26T00:58:25.139Z,100257.94
2022-12-26T01:00:52.031Z,100256.41
2022-12-26T01:03:19.009Z,100258.31
2022-12-26T01:05:50.693Z,100272.03
2022-12-26T01:08:22.304Z,100264.38
2022-12-26T01:10:50.326Z,100260.53
2022-12-26T01:13:16.721Z,100260.81
2022-12-26T01:15:53.346Z,100264.28
2022-12-26T01:18:20.629Z,100260.47
2022-12-26T01:20:48.076Z,100269.00
2022-12-26T01:23:14.646Z,100275.31
2022-12-26T01:26:18.611Z,100276.66
2022-12-26T01:28:27.397Z,100276.94
2022-12-26T01:30:54.308Z,100289.69
2022-12-26T01:33:20.697Z,100290.81
2022-12-26T01:35:53.434Z,100278.47
2022-12-26T01:38:20.833Z,100301.78
2022-12-26T01:40:47.929Z,100301.22
2022-12-26T01:43:16.311Z,100286.13
2022-12-26T01:45:46.427Z,100306.03
2022-12-26T01:48:22.164Z,100308.94
2022-12-26T01:50:56.059Z,100310.16
2022-12-26T01:53:43.831Z,100304.06
2022-12-26T01:56:13.163Z,100293.72
2022-12-26T01:58:44.917Z,100289.66
2022-12-26T02:01:11.518Z,100310.94
2022-12-26T02:03:57.695Z,100305.06
2022-12-26T02:06:24.134Z,100300.69
2022-12-26T02:08:50.600Z,100303.44
2022-12-26T02:11:31.674Z,100303.84
2022-12-26T02:13:58.432Z,100302.06
2022-12-26T02:16:25.708Z,100301.38
2022-12-26T02:18:52.193Z,100311.56
2022-12-26T02:21:37.266Z,100314.84
2022-12-26T02:24:22.483Z,100325.53
2022-12-26T02:27:19.760Z,100332.03
2022-12-26T02:29:55.273Z,100342.59
2022-12-26T02:32:28.668Z,100324.72
2022-12-26T02:35:13.306Z,100326.06
2022-12-26T02:37:45.652Z,100321.13
2022-12-26T02:40:29.781Z,100315.69
2022-12-26T02:43:12.762Z,100316.78
2022-12-26T02:46:02.421Z,100326.38
2022-12-26T02:48:52.067Z,100328.88
2022-12-26T02:51:43.118Z,100324.13
2022-12-26T02:54:55.545Z,100326.94
2022-12-26T02:57:47.109Z,100330.50
2022-12-26T03:00:35.333Z,100322.41
2022-12-26T03:03:31.986Z,100323.06
2022-12-26T03:06:18.723Z,100319.56
2022-12-26T03:09:07.746Z,100327.34
2022-12-26T03:12:01.539Z,100323.28
2022-12-26T03:14:38.575Z,100310.38
2022-12-26T03:17:22.178Z,100316.59
2022-12-26T03:20:00.948Z,100328.50
2022-12-26T03:22:39.405Z,100334.69
2022-12-26T03:25:27.262Z,100340.91
2022-12-26T03:27:54.407Z,100340.13
2022-12-26T03:30:40.011Z,100337.47
2022-12-26T03:33:26.821Z,100339.97
2022-12-26T03:35:53.302Z,100336.34
2022-12-26T03:38:24.374Z,100335.19
2022-12-26T03:41:20.422Z,100333.06
2022-12-26T03:44:30.193Z,100329.78
2022-12-26T03:47:28.998Z,100334.22
2022-12-26T03:50:22.229Z,100348.91
2022-12-26T03:53:14.701Z,100354.34
2022-12-26T03:56:07.480Z,100347.81
2022-12-26T03:59:23.686Z,100346.47
2022-12-26T04:02:09.731Z,100342.97
2022-12-26T04:04:56.307Z,100340.09
2022-12-26T04:07:56.781Z,100332.19
2022-12-26T04:10:49.082Z,100333.44
2022-12-26T04:13:41.677Z,100334.03
2022-12-26T04:16:47.326Z,100337.00
2022-12-26T04:19:26.696Z,100352.25
2022-12-26T04:22:18.306Z,100348.63
2022-12-26T04:25:10.715Z,100349.91
2022-12-26T04:27:55.686Z,100344.16
2022-12-26T04:30:40.814Z,100352.59
2022-12-26T04:33:30.723Z,100359.44
2022-12-26T04:36:23.395Z,100370.59
2022-12-26T04:39:13.863Z,100376.22
2022-12-26T04:41:59.892Z,100381.47
2022-12-26T04:44:27.312Z,100383.06
2022-12-26T04:46:54.383Z,100379.13
2022-12-26T04:49:39.699Z,100382.94
2022-12-26T04:52:09.862Z,100384.97
2022-12-26T04:54:36.263Z,100375.06
2022-12-26T04:57:02.740Z,100372.03
2022-12-26T04:59:29.190Z,100378.13
2022-12-26T05:02:14.054Z,100371.03
2022-12-26T05:04:59.211Z,100385.66
2022-12-26T05:07:47.408Z,100382.72
2022-12-26T05:10:18.814Z,100391.00
2022-12-26T05:12:45.205Z,100389.13
2022-12-26T05:15:12.149Z,100396.41
2022-12-26T05:17:57.014Z,100394.81
2022-12-26T05:20:49.743Z,100392.59
2022-12-26T05:23:46.541Z,100390.13
2022-12-26T05:26:39.370Z,100394.50
2022-12-26T05:29:05.855Z,100391.16
2022-12-26T05:31:36.132Z,100384.75
2022-12-26T05:34:06.710Z,100388.66
2022-12-26T05:36:39.558Z,100383.81
2022-12-26T05:39:07.644Z,100397.88
2022-12-26T05:41:34.161Z,100393.69
2022-12-26T05:44:00.780Z,100396.28
2022-12-26T05:46:27.647Z,100392.50
2022-12-26T05:48:54.217Z,100391.69
2022-12-26T05:51:21.020Z,100395.28
2022-12-26T05:53:48.396Z,100403.25
2022-12-26T05:56:16.494Z,100405.16
2022-12-26T05:58:43.169Z,100405.16
2022-12-26T06:01:15.771Z,100401.69
2022-12-26T06:03:43.468Z,100403.59
2022-12-26T06:06:10.533Z,100407.22
2022-12-26T06:08:37.432Z,100405.06
2022-12-26T06:11:06.113Z,100411.03
2022-12-26T06:13:33.006Z,100417.66
2022-12-26T06:15:59.444Z,100421.13
2022-12-26T06:18:26.101Z,100413.84
2022-12-26T06:20:52.666Z,100397.44
2022-12-26T06:23:19.122Z,100387.53
2022-12-26T06:25:45.509Z,100372.38
2022-12-26T06:28:11.878Z,100363.19
2022-12-26T06:30:38.257Z,100379.47
2022-12-26T06:33:04.625Z,100382.94
2022-12-26T06:35:31.150Z,100373.97
2022-12-26T06:37:57.579Z,100362.97
2022-12-26T06:40:24.047Z,100372.38
2022-12-26T06:42:50.448Z,100380.13
2022-12-26T06:45:16.941Z,100380.69
2022-12-26T06:47:43.335Z,100382.84
2022-12-26T06:50:09.903Z,100390.13
2022-12-26T06:52:36.316Z,100390.56
2022-12-26T06:55:02.739Z,100400.25
2022-12-26T06:57:29.110Z,100395.06
2022-12-26T06:59:55.564Z,100395.50
2022-12-26T07:02:22.213Z,100393.19
2022-12-26T07:04:48.614Z,100392.59
2022-12-26T07:07:14.978Z,100400.47
2022-12-26T07:09:41.362Z,100402.03
2022-12-26T07:12:07.748Z,100405.41
2022-12-26T07:14:34.187Z,100406.50
2022-12-26T07:17:00.587Z,100418.44
2022-12-26T07:19:27.032Z,100416.72
2022-12-26T07:21:53.436Z,100417.94
2022-12-26T07:24:21.648Z,100428.78
2022-12-26T07:26:48.729Z,100429.09
2022-12-26T07:29:15.293Z,100435.97
2022-12-26T07:31:42.159Z,100442.03
2022-12-26T07:34:08.698Z,100446.31
2022-12-26T07:36:35.213Z,100442.13
2022-12-26T07:39:01.647Z,100441.34
2022-12-26T07:41:47.768Z,100451.91
2022-12-26T07:44:14.125Z,100446.19
2022-12-26T07:46:40.522Z,100448.31
2022-12-26T07:49:07.503Z,100449.34
2022-12-26T07:51:33.957Z,100439.44
2022-12-26T07:54:02.288Z,100447.28
2022-12-26T07:56:32.476Z,100442.25
2022-12-26T07:58:58.838Z,100440.81
2022-12-26T08:01:25.303Z,100444.59
2022-12-26T08:03:52.405Z,100442.13
2022-12-26T08:06:19.025Z,100454.94
2022-12-26T08:08:50.841Z,100446.75
2022-12-26T08:11:20.613Z,100452.91
2022-12-26T08:13:47.085Z,100456.84
2022-12-26T08:16:14.645Z,100449.66
2022-12-26T08:18:41.497Z,100461.13
2022-12-26T08:21:08.032Z,100468.31
2022-12-26T08:23:34.775Z,100478.75
2022-12-26T08:26:09.949Z,100484.03
2022-12-26T08:28:36.432Z,100470.91
2022-12-26T08:31:10.603Z,100465.38
2022-12-26T08:33:37.031Z,100465.63
2022-12-26T08:36:05.346Z,100455.06
2022-12-26T08:38:33.756Z,100457.19
2022-12-26T08:41:00.551Z,100466.16
2022-12-26T08:46:13.510Z,100462.03
2022-12-26T08:48:40.503Z,100469.78
2022-12-26T08:51:11.018Z,100475.63
2022-12-26T08:53:37.917Z,100476.50
2022-12-26T08:56:06.891Z,100480.88
2022-12-26T08:58:34.429Z,100478.53
2022-12-26T09:01:11.409Z,100475.94
2022-12-26T09:03:38.342Z,100469.22
2022-12-26T09:06:06.450Z,100465.81
2022-12-26T09:08:37.455Z,100473.03
2022-12-26T09:11:20.677Z,100475.72
2022-12-26T09:13:47.693Z,100479.00
2022-12-26T09:16:17.730Z,100481.34
2022-12-26T09:18:45.037Z,100481.56
2022-12-26T09:21:13.018Z,100478.28
2022-12-26T09:23:40.168Z,100473.81
2022-12-26T09:26:27.112Z,100471.81
2022-12-26T09:28:53.968Z,100470.22
2022-12-26T09:31:23.193Z,100480.91
2022-12-26T09:33:49.908Z,100480.44
2022-12-26T09:36:19.286Z,100474.50
2022-12-26T09:38:47.114Z,100479.00
2022-12-26T09:41:23.221Z,100477.09
2022-12-26T09:44:17.321Z,100481.13
2022-12-26T09:46:46.747Z,100482.25
2022-12-26T09:49:22.753Z,100477.75
2022-12-26T09:51:54.327Z,100468.19
2022-12-26T09:54:33.683Z,100474.03
2022-12-26T09:57:02.963Z,100480.00
2022-12-26T09:59:34.667Z,100479.66
2022-12-26T10:02:01.228Z,100477.75
2022-12-26T10:04:30.388Z,100477.97
2022-12-26T10:07:17.481Z,100495.97
2022-12-26T10:09:46.830Z,100501.34
2022-12-26T10:12:16.270Z,100494.09
2022-12-26T10:15:14.030Z,100498.59
2022-12-26T10:18:06.039Z,100492.75
2022-12-26T10:20:52.342Z,100488.81
2022-12-26T10:23:38.718Z,100504.44
2022-12-26T10:26:11.035Z,100500.03
2022-12-26T10:28:45.934Z,100505.47
2022-12-26T10:31:28.592Z,100497.25
2022-12-26T10:34:01.002Z,100494.44
2022-12-26T10:36:47.657Z,100494.22
2022-12-26T10:39:27.822Z,100497.25
2022-12-26T10:42:01.023Z,100490.28
2022-12-26T10:44:28.265Z,100477.44
2022-12-26T10:47:12.946Z,100481.06
2022-12-26T10:49:39.379Z,100476.75
2022-12-26T10:52:05.918Z,100474.19
2022-12-26T10:54:32.375Z,100479.78
2022-12-26T10:56:59.996Z,100480.47
2022-12-26T10:59:47.641Z,100486.06
2022-12-26T11:02:22.317Z,100489.72
2022-12-26T11:05:27.235Z,100481.84
2022-12-26T11:07:51.428Z,100482.81
2022-12-26T11:10:21.457Z,100488.22
2022-12-26T11:13:00.481Z,100485.31
2022-12-26T11:15:40.060Z,100492.09
2022-12-26T11:18:35.445Z,100502.16
2022-12-26T11:21:19.169Z,100493.97
2022-12-26T11:23:46.841Z,100502.53
2022-12-26T11:26:26.522Z,100505.81
2022-12-26T11:29:11.803Z,100508.06
2022-12-26T11:31:39.530Z,100508.31
2022-12-26T11:34:10.759Z,100500.88
2022-12-26T11:36:40.331Z,100498.88
2022-12-26T11:39:18.642Z,100509.91
2022-12-26T11:41:48.969Z,100515.97
2022-12-26T11:44:25.357Z,100513.81
2022-12-26T11:47:07.471Z,100507.50
2022-12-26T11:49:54.567Z,100503.47
2022-12-26T11:52:58.074Z,100506.25
2022-12-26T11:55:27.733Z,100505.13
2022-12-26T11:58:06.593Z,100497.16
2022-12-26T12:00:37.315Z,100497.03
2022-12-26T12:03:12.618Z,100496.13
2022-12-26T12:05:44.908Z,100495.44
2022-12-26T12:08:26.437Z,100496.59
2022-12-26T12:11:00.477Z,100495.28
2022-12-26T12:13:32.556Z,100489.66
2022-12-26T12:16:12.106Z,100495.50
2022-12-26T12:18:59.921Z,100489.00
2022-12-26T12:21:39.419Z,100499.66
2022-12-26T12:24:24.464Z,100507.53
2022-12-26T12:27:04.759Z,100507.41
2022-12-26T12:29:56.477Z,100516.19
2022-12-26T12:32:46.033Z,100501.13
2022-12-26T12:35:44.900Z,100498.88
2022-12-26T12:38:14.026Z,100488.63
2022-12-26T12:41:05.384Z,100486.56
2022-12-26T12:43:42.857Z,100473.06
2022-12-26T12:46:26.235Z,100478.69
2022-12-26T12:49:02.250Z,100474.28
2022-12-26T12:52:00.405Z,100490.19
2022-12-26T12:54:36.954Z,100501.69
2022-12-26T12:57:35.197Z,100534.50
2022-12-26T13:00:24.172Z,100551.66
2022-12-26T13:02:59.388Z,100563.97
2022-12-26T13:05:42.563Z,100574.78
2022-12-26T13:08:24.057Z,100581.41
2022-12-26T13:10:56.591Z,100597.16
2022-12-26T13:13:28.687Z,100599.09
2022-12-26T13:16:01.375Z,100604.75
2022-12-26T13:18:31.552Z,100613.53
2022-12-26T13:21:03.229Z,100618.94
2022-12-26T13:23:57.004Z,100626.66
2022-12-26T13:26:27.077Z,100626.25
2022-12-26T13:29:00.582Z,100624.44
2022-12-26T13:31:32.925Z,100623.56
2022-12-26T13:33:59.696Z,100630.25
2022-12-26T13:36:39.645Z,100624.84
2022-12-26T13:39:12.034Z,100636.06
2022-12-26T13:42:28.191Z,100631.28
2022-12-26T13:44:54.911Z,100641.72
2022-12-26T13:47:33.806Z,100654.25
2022-12-26T13:50:38.427Z,100646.75
2022-12-26T13:53:24.373Z,100647.03
2022-12-26T13:55:52.055Z,100655.25
2022-12-26T13:58:40.729Z,100649.84
2022-12-26T14:02:03.038Z,100644.19
2022-12-26T14:04:59.681Z,100653.47
2022-12-26T14:07:25.958Z,100654.34
2022-12-26T14:10:15.290Z,100667.09
2022-12-26T14:12:51.303Z,100663.88
2022-12-26T14:15:24.545Z,100665.53
2022-12-26T14:18:16.241Z,100667.31
2022-12-26T14:20:48.784Z,100665.38
2022-12-26T14:23:37.398Z,100668.34
2022-12-26T14:26:39.642Z,100685.41
2022-12-26T14:29:21.212Z,100683.47
2022-12-26T14:31:59.086Z,100692.25
2022-12-26T14:34:47.250Z,100709.34
2022-12-26T14:37:43.082Z,100715.97
2022-12-26T14:40:26.108Z,100714.28
2022-12-26T14:43:16.265Z,100722.00
2022-12-26T14:45:50.602Z,100723.72
2022-12-26T14:48:16.930Z,100729.13
2022-12-26T14:50:47.584Z,100733.53
2022-12-26T14:53:20.357Z,100724.72
2022-12-26T14:55:52.591Z,100728.59
2022-12-26T14:58:39.259Z,100732.56
2022-12-26T15:01:08.712Z,100733.84
2022-12-26T15:04:08.729Z,100747.16
2022-12-26T15:06:47.241Z,100752.31
2022-12-26T15:09:32.378Z,100764.22
2022-12-26T15:12:35.914Z,100763.38
2022-12-26T15:15:18.184Z,100772.72
2022-12-26T15:17:56.473Z,100772.69
2022-12-26T15:20:50.854Z,100779.19
2022-12-26T15:23:41.507Z,100783.56
2022-12-26T15:26:26.690Z,100792.25
2022-12-26T15:29:03.718Z,100788.09
2022-12-26T15:31:56.932Z,100797.31
2022-12-26T15:34:47.850Z,100794.41
2022-12-26T15:37:17.346Z,100792.16
2022-12-26T15:39:53.941Z,100802.53
2022-12-26T15:42:42.697Z,100807.00
2022-12-26T15:45:24.478Z,100819.53
2022-12-26T15:48:05.092Z,100829.13
2022-12-26T15:50:33.792Z,100815.91
2022-12-26T15:53:24.929Z,100807.03
2022-12-26T15:56:36.059Z,100819.94
2022-12-26T15:59:24.417Z,100829.50
2022-12-26T16:01:53.354Z,100825.91
2022-12-26T16:04:36.038Z,100844.13
2022-12-26T16:08:00.809Z,100848.94
2022-12-26T16:10:29.269Z,100850.44
2022-12-26T16:13:07.101Z,100853.78
2022-12-26T16:15:33.848Z,100864.06
2022-12-26T16:18:20.943Z,100867.41
2022-12-26T16:21:07.022Z,100864.53
2022-12-26T16:23:37.876Z,100875.91
2022-12-26T16:26:04.384Z,100864.16
2022-12-26T16:28:39.296Z,100873.50
2022-12-26T16:31:06.263Z,100873.19
2022-12-26T16:33:35.457Z,100875.91
2022-12-26T16:36:01.934Z,100883.78
2022-12-26T16:38:30.491Z,100898.13
2022-12-26T16:40:58.027Z,100904.44
2022-12-26T16:43:27.790Z,100905.06
2022-12-26T16:45:58.763Z,100911.25
2022-12-26T16:48:27.161Z,100908.94
2022-12-26T16:51:05.832Z,100911.19
2022-12-26T16:53:35.327Z,100906.19
2022-12-26T16:56:17.063Z,100913.03
2022-12-26T16:58:44.298Z,100922.69
2022-12-26T17:01:13.600Z,100932.94
2022-12-26T17:03:50.201Z,100929.00
2022-12-26T17:06:40.856Z,100930.66
2022-12-26T17:09:16.651Z,100940.81
2022-12-26T17:12:07.836Z,100946.41
2022-12-26T17:14:43.213Z,100950.94
2022-12-26T17:17:21.780Z,100962.25
2022-12-26T17:19:54.308Z,100962.84
2022-12-26T17:22:35.804Z,100956.03
2022-12-26T17:25:17.061Z,100962.53
2022-12-26T17:27:44.897Z,100967.69
2022-12-26T17:30:41.510Z,100972.53
2022-12-26T17:33:25.803Z,100976.88
2022-12-26T17:38:51.090Z,100987.44
2022-12-26T17:41:17.633Z,100993.44
2022-12-26T17:43:45.462Z,100988.00
2022-12-26T17:46:14.546Z,100982.88
2022-12-26T17:48:42.092Z,100990.59
2022-12-26T17:51:16.192Z,100987.72
2022-12-26T17:53:47.194Z,100984.06
2022-12-26T17:56:16.617Z,100996.81
2022-12-26T17:58:44.197Z,101000.34
2022-12-26T18:01:14.711Z,101001.72
2022-12-26T18:03:44.116Z,100995.72
2022-12-26T18:06:14.867Z,100995.34
2022-12-26T18:08:41.502Z,101007.13
2022-12-26T18:11:10.814Z,101009.84
2022-12-26T18:13:37.561Z,101010.13
2022-12-26T18:16:04.483Z,101014.69
2022-12-26T18:18:37.821Z,101020.38
2022-12-26T18:21:06.954Z,101039.88
2022-12-26T18:23:33.342Z,101048.47
2022-12-26T18:26:01.616Z,101055.84
2022-12-26T18:28:28.450Z,101054.19
2022-12-26T18:30:56.893Z,101057.31
2022-12-26T18:33:23.583Z,101072.09
2022-12-26T18:35:50.031Z,101066.91
2022-12-26T18:38:19.208Z,101073.22
2022-12-26T18:40:47.967Z,101068.47
2022-12-26T18:43:14.992Z,101071.88
2022-12-26T18:45:42.142Z,101077.97
2022-12-26T18:48:12.793Z,101071.84
2022-12-26T18:50:39.172Z,101081.13
2022-12-26T18:53:06.084Z,101085.56
2022-12-26T18:55:32.677Z,101088.78
2022-12-26T18:57:59.251Z,101097.19
2022-12-26T19:00:26.216Z,101095.69
2022-12-26T19:02:55.466Z,101110.91
2022-12-26T19:05:26.155Z,101104.66
2022-12-26T19:07:52.800Z,101118.69
2022-12-26T19:10:21.207Z,101124.50
2022-12-26T19:12:48.465Z,101130.69
2022-12-26T19:15:15.211Z,101138.78
2022-12-26T19:17:43.538Z,101136.91
2022-12-26T19:20:17.983Z,101141.25
2022-12-26T19:22:44.923Z,101147.13
2022-12-26T19:25:11.545Z,101148.88
2022-12-26T19:27:37.892Z,101155.72
2022-12-26T19:30:04.579Z,101165.41
2022-12-26T19:32:30.996Z,101161.34
2022-12-26T19:34:57.624Z,101159.59
2022-12-26T19:37:24.062Z,101171.03
2022-12-26T19:39:50.573Z,101183.75
2022-12-26T19:42:17.227Z,101185.72
2022-12-26T19:44:44.334Z,101185.16
2022-12-26T19:47:12.899Z,101192.00
2022-12-26T19:49:40.495Z,101188.63
2022-12-26T19:52:07.076Z,101193.16
2022-12-26T19:54:33.434Z,101205.47
2022-12-26T19:56:59.796Z,101202.72
2022-12-26T19:59:26.361Z,101205.38
2022-12-26T20:01:53.035Z,101207.13
2022-12-26T20:04:19.577Z,101212.22
2022-12-26T20:06:46.003Z,101220.91
2022-12-26T20:09:14.046Z,101230.69
2022-12-26T20:11:43.172Z,101226.25
2022-12-26T20:14:12.851Z,101233.59
2022-12-26T20:17:04.860Z,101233.75
2022-12-26T20:19:26.775Z,101231.91
2022-12-26T20:21:53.724Z,101228.94
2022-12-26T20:24:21.346Z,101236.56
2022-12-26T20:26:48.982Z,101240.03
2022-12-26T20:29:15.813Z,101239.50
2022-12-26T20:31:42.624Z,101240.94
2022-12-26T20:34:09.766Z,101243.16
2022-12-26T20:36:37.403Z,101243.84
2022-12-26T20:39:06.847Z,101251.81
2022-12-26T20:41:33.620Z,101250.78
2022-12-26T20:44:00.077Z,101254.09
2022-12-26T20:46:30.861Z,101252.13
2022-12-26T20:48:57.527Z,101256.72
2022-12-26T20:51:29.041Z,101259.44
2022-12-26T20:53:59.937Z,101256.72
2022-12-26T20:56:26.343Z,101256.53
2022-12-26T20:58:52.817Z,101261.50
2022-12-26T21:01:21.751Z,101259.66
2022-12-26T21:03:49.180Z,101263.19
2022-12-26T21:06:21.367Z,101259.22
2022-12-26T21:08:49.569Z,101258.69
2022-12-26T21:11:24.917Z,101255.88
2022-12-26T21:13:54.201Z,101255.13
2022-12-26T21:16:24.769Z,101260.28
2022-12-26T21:18:51.726Z,101274.59
2022-12-26T21:21:21.039Z,101274.59
2022-12-26T21:23:47.810Z,101266.19
2022-12-26T21:26:15.573Z,101277.53
2022-12-26T21:28:42.195Z,101278.66
2022-12-26T21:31:10.428Z,101282.06
2022-12-26T21:33:44.044Z,101284.97
2022-12-26T21:36:12.722Z,101292.88
2022-12-26T21:38:39.442Z,101291.94
2022-12-26T21:41:10.508Z,101295.03
2022-12-26T21:43:36.911Z,101297.59
2022-12-26T21:46:08.644Z,101293.47
2022-12-26T21:48:36.159Z,101289.00
2022-12-26T21:51:04.103Z,101289.72
2022-12-26T21:53:30.494Z,101295.16
2022-12-26T21:56:03.705Z,101295.97
2022-12-26T21:58:30.105Z,101295.16
2022-12-26T22:00:56.476Z,101313.06
2022-12-26T22:03:41.483Z,101313.06
2022-12-26T22:06:15.085Z,101312.69
2022-12-26T22:08:44.246Z,101302.78
2022-12-26T22:11:35.409Z,101309.72
2022-12-26T22:14:01.804Z,101306.59
2022-12-26T22:16:29.769Z,101311.56
2022-12-26T22:18:56.456Z,101309.72
2022-12-26T22:21:23.428Z,101319.56
2022-12-26T22:23:50.806Z,101323.00
2022-12-26T22:26:17.931Z,101330.44
2022-12-26T22:28:44.757Z,101337.41
2022-12-26T22:31:22.223Z,101336.16
2022-12-26T22:33:53.982Z,101344.19
2022-12-26T22:36:20.351Z,101342.34
2022-12-26T22:38:46.726Z,101348.91
2022-12-26T22:41:13.087Z,101354.19
2022-12-26T22:43:40.548Z,101350.16
2022-12-26T22:46:07.257Z,101350.44
2022-12-26T22:48:33.738Z,101348.44
2022-12-26T22:51:00.176Z,101346.28
2022-12-26T22:53:27.979Z,101355.41
2022-12-26T22:56:02.664Z,101363.06
2022-12-26T22:58:30.183Z,101356.75
2022-12-26T23:00:57.144Z,101354.38
2022-12-26T23:03:24.347Z,101361.94
2022-12-26T23:05:51.263Z,101360.28
2022-12-26T23:08:21.155Z,101345.56
2022-12-26T23:10:48.345Z,101371.16
2022-12-26T23:13:15.477Z,101363.25
2022-12-26T23:15:51.149Z,101360.63
2022-12-26T23:18:51.889Z,101369.56
2022-12-26T23:21:42.213Z,101380.19
2022-12-26T23:24:19.804Z,101378.22
2022-12-26T23:26:49.825Z,101377.41
2022-12-26T23:29:36.760Z,101383.88
2022-12-26T23:32:03.479Z,101385.88
2022-12-26T23:34:29.918Z,101387.19
2022-12-26T23:36:56.359Z,101388.44
2022-12-26T23:39:22.754Z,101390.91
2022-12-26T23:41:49.133Z,101394.19
2022-12-26T23:44:15.617Z,101394.34
2022-12-26T23:46:42.492Z,101394.13
2022-12-26T23:49:12.455Z,101394.13
2022-12-26T23:51:38.993Z,101397.22
2022-12-26T23:54:05.404Z,101401.69
2022-12-26T23:56:31.773Z,101407.78
2022-12-26T23:58:58.157Z,101409.94
